Time;durP1;ratioP1;P1;durP2;ratioP2;P2;SDS_P1;SDS_P2;PMS_P1;PMS_P2;Temp;Humidity;BMP_temperature;BMP_pressure;BME280_temperature;BME280_humidity;BME280_pressure;Samples;Min_cycle;Max_cycle;Signal;HPM_P1;HPM_P2
2022/10/28 00:00:50;;;;;;;11.48;7.82;;;18.70;99.90;;;;;;5014872;28;20029;-92
2022/10/28 00:03:17;;;;;;;9.07;7.00;;;18.70;99.90;;;;;;5013326;28;20034;-91
2022/10/28 00:05:44;;;;;;;10.82;7.60;;;18.70;99.90;;;;;;5014638;28;20021;-91
2022/10/28 00:08:10;;;;;;;13.60;7.45;;;18.70;99.90;;;;;;5029553;28;20037;-91
2022/10/28 00:10:36;;;;;;;11.32;8.52;;;18.70;99.90;;;;;;5014791;28;20088;-90
2022/10/28 00:13:01;;;;;;;8.48;6.93;;;18.70;99.90;;;;;;5014358;28;20460;-90
2022/10/28 00:15:27;;;;;;;12.02;7.57;;;18.70;99.90;;;;;;5029612;28;20403;-91
2022/10/28 00:17:53;;;;;;;10.15;6.78;;;18.70;99.90;;;;;;5029930;28;20541;-90
2022/10/28 00:20:18;;;;;;;10.23;7.47;;;18.70;99.90;;;;;;5014326;28;20057;-91
2022/10/28 00:22:44;;;;;;;8.60;7.45;;;18.70;99.90;;;;;;5014032;28;20034;-91
2022/10/28 00:25:10;;;;;;;8.90;7.07;;;18.70;99.90;;;;;;5013934;28;20073;-91
2022/10/28 00:27:35;;;;;;;10.95;6.60;;;18.60;99.90;;;;;;5014294;28;20025;-90
2022/10/28 00:30:01;;;;;;;10.85;7.40;;;18.70;99.90;;;;;;5029209;28;20041;-91
2022/10/28 00:32:31;;;;;;;8.63;6.97;;;18.70;99.90;;;;;;5028957;28;20484;-91
2022/10/28 00:34:57;;;;;;;10.93;6.90;;;18.60;99.90;;;;;;5014277;28;20068;-92
2022/10/28 00:37:23;;;;;;;8.40;6.82;;;18.60;99.90;;;;;;5013777;28;20029;-90
2022/10/28 00:39:49;;;;;;;10.20;6.88;;;18.70;99.90;;;;;;5013845;28;20048;-90
2022/10/28 00:42:20;;;;;;;10.18;7.10;;;18.70;99.90;;;;;;5013497;28;20026;-90
2022/10/28 00:44:49;;;;;;;10.57;6.95;;;18.70;99.90;;;;;;5028557;28;20405;-91
2022/10/28 00:47:32;;;;;;;9.75;6.90;;;18.70;99.90;;;;;;5013713;28;20076;-91
2022/10/28 00:50:12;;;;;;;11.95;6.93;;;18.70;99.90;;;;;;5009516;28;20026;-91
2022/10/28 00:52:39;;;;;;;9.27;7.10;;;18.70;99.90;;;;;;5008897;28;20057;-90
2022/10/28 00:55:07;;;;;;;9.35;6.60;;;18.70;99.90;;;;;;4993361;28;20176;-91
2022/10/28 00:57:37;;;;;;;8.35;6.82;;;18.70;99.90;;;;;;5008986;28;20030;-91
2022/10/28 01:00:06;;;;;;;8.60;6.75;;;18.70;99.90;;;;;;5008984;28;20112;-91
2022/10/28 01:02:36;;;;;;;9.13;7.10;;;18.70;99.90;;;;;;5008904;28;20057;-91
2022/10/28 01:05:02;;;;;;;7.70;5.70;;;18.70;99.90;;;;;;4993878;28;20041;-91
2022/10/28 01:07:29;;;;;;;8.05;6.88;;;18.70;99.90;;;;;;5010525;28;20018;-89
2022/10/28 01:09:55;;;;;;;6.70;6.10;;;18.70;99.90;;;;;;5028986;28;20116;-91
2022/10/28 01:12:51;;;;;;;9.32;6.43;;;18.70;99.90;;;;;;5028616;28;20065;-91
2022/10/28 01:15:46;;;;;;;13.48;6.88;;;18.70;99.90;;;;;;5013297;28;20021;-91
2022/10/28 01:18:49;;;;;;;8.93;6.90;;;18.70;99.90;;;;;;5012451;28;20044;-91
2022/10/28 01:22:02;;;;;;;10.95;7.00;;;18.70;99.90;;;;;;5013357;28;20064;-91
2022/10/28 01:24:52;;;;;;;13.10;8.07;;;18.70;99.90;;;;;;4952767;29;20505;-91
2022/10/28 01:27:44;;;;;;;14.15;7.90;;;18.70;99.90;;;;;;4936438;29;20031;-90
2022/10/28 01:30:20;;;;;;;10.30;7.90;;;18.70;99.90;;;;;;4895561;29;20037;-91
2022/10/28 01:33:08;;;;;;;9.55;7.90;;;18.80;99.90;;;;;;4895735;29;20123;-92
2022/10/28 01:35:51;;;;;;;14.18;7.50;;;18.80;99.90;;;;;;4895965;29;20033;-91
2022/10/28 01:38:50;;;;;;;10.73;7.82;;;18.70;99.90;;;;;;4896092;29;20044;-91
2022/10/28 01:41:27;;;;;;;12.27;7.65;;;18.70;99.90;;;;;;4892836;29;20036;-92
2022/10/28 01:44:00;;;;;;;8.90;7.50;;;18.80;99.90;;;;;;4911828;29;20067;-92
2022/10/28 01:46:48;;;;;;;11.65;7.70;;;18.80;99.90;;;;;;4911712;29;20035;-91
2022/10/28 01:49:24;;;;;;;11.02;7.63;;;18.70;99.90;;;;;;4843666;29;20033;-91
2022/10/28 01:51:54;;;;;;;15.77;8.60;;;18.70;99.90;;;;;;4858211;29;20033;-90
2022/10/28 01:54:23;;;;;;;9.65;7.18;;;18.70;99.90;;;;;;4858065;29;20551;-91
2022/10/28 01:56:51;;;;;;;10.40;7.53;;;18.70;99.90;;;;;;4857990;29;20030;-90
2022/10/28 01:59:21;;;;;;;8.82;6.65;;;18.70;99.90;;;;;;4857781;29;20029;-91
2022/10/28 02:01:47;;;;;;;10.77;7.80;;;18.60;99.90;;;;;;4895250;29;20116;-91
2022/10/28 02:04:12;;;;;;;11.00;8.02;;;18.60;99.90;;;;;;4894743;29;20536;-89
2022/10/28 02:06:41;;;;;;;10.90;7.88;;;18.60;99.90;;;;;;4910230;29;20035;-89
2022/10/28 02:09:49;;;;;;;11.65;7.60;;;18.70;99.90;;;;;;4955411;28;20063;-90
2022/10/28 02:12:32;;;;;;;16.27;8.95;;;18.60;99.90;;;;;;4917364;29;20036;-90
2022/10/28 02:15:15;;;;;;;11.60;8.25;;;18.60;99.90;;;;;;4917438;29;20066;-89
2022/10/28 02:18:23;;;;;;;13.75;8.43;;;18.70;99.90;;;;;;4917079;29;20040;-90
2022/10/28 02:21:02;;;;;;;11.10;8.38;;;18.60;99.90;;;;;;4917376;29;20040;-87
2022/10/28 02:23:54;;;;;;;10.10;7.55;;;18.60;99.90;;;;;;4916810;29;20039;-89
2022/10/28 02:26:38;;;;;;;11.80;8.18;;;18.60;99.90;;;;;;4937319;29;20054;-89
2022/10/28 02:29:14;;;;;;;11.88;7.63;;;18.60;99.90;;;;;;4955175;29;20054;-89
2022/10/28 02:31:46;;;;;;;10.57;7.53;;;18.60;99.90;;;;;;4966330;28;20058;-89
2022/10/28 02:34:23;;;;;;;8.48;7.38;;;18.60;99.90;;;;;;4993697;28;20022;-88
2022/10/28 02:36:53;;;;;;;11.93;8.15;;;18.60;99.90;;;;;;4993675;28;20043;-90
2022/10/28 02:39:23;;;;;;;11.20;7.55;;;18.60;99.90;;;;;;4993720;28;20030;-90
2022/10/28 02:42:15;;;;;;;13.95;8.18;;;18.60;99.90;;;;;;4993207;28;20038;-89
2022/10/28 02:44:49;;;;;;;10.90;7.18;;;18.60;99.90;;;;;;4993331;28;20033;-88
2022/10/28 02:47:23;;;;;;;10.35;7.50;;;18.60;99.90;;;;;;4993366;28;20026;-88
2022/10/28 02:49:54;;;;;;;10.70;7.82;;;18.60;99.90;;;;;;5012093;28;20038;-90
2022/10/28 02:52:21;;;;;;;;;;;18.60;99.90;;;;;;5015469;28;20030;-88
2022/10/28 02:54:58;;;;;;;12.52;7.72;;;18.60;99.90;;;;;;5015146;28;19905;-88
2022/10/28 02:57:34;;;;;;;14.73;8.70;;;18.60;99.90;;;;;;5015364;28;20026;-89
2022/10/28 03:00:06;;;;;;;14.82;8.13;;;18.60;99.90;;;;;;5015433;28;20088;-89
2022/10/28 03:02:31;;;;;;;14.70;8.70;;;18.50;99.90;;;;;;5014969;28;20030;-89
2022/10/28 03:04:57;;;;;;;10.82;8.18;;;18.60;99.90;;;;;;5015214;28;20040;-89
2022/10/28 03:07:23;;;;;;;12.82;7.65;;;18.60;99.90;;;;;;5014781;28;20491;-89
2022/10/28 03:09:49;;;;;;;15.57;8.52;;;18.60;99.90;;;;;;5014948;28;20053;-90
2022/10/28 03:12:14;;;;;;;19.08;9.32;;;18.60;99.90;;;;;;5015517;28;20063;-90
2022/10/28 03:14:41;;;;;;;12.30;8.48;;;18.60;99.90;;;;;;5015567;28;20030;-91
2022/10/28 03:17:07;;;;;;;12.18;8.20;;;18.60;99.90;;;;;;5014514;28;20033;-89
2022/10/28 03:19:33;;;;;;;15.07;9.10;;;18.60;99.90;;;;;;5015333;28;20042;-90
2022/10/28 03:21:58;;;;;;;14.50;8.80;;;18.60;99.90;;;;;;5014605;28;20021;-90
2022/10/28 03:24:24;;;;;;;20.95;9.98;;;18.50;99.90;;;;;;5015252;28;20030;-90
2022/10/28 03:26:50;;;;;;;14.85;8.68;;;18.50;99.90;;;;;;5015395;28;20038;-90
2022/10/28 03:29:15;;;;;;;14.52;9.45;;;18.60;99.90;;;;;;5030198;28;20087;-91
2022/10/28 03:31:41;;;;;;;17.17;9.25;;;18.50;99.90;;;;;;5014717;28;20014;-89
2022/10/28 03:34:07;;;;;;;15.20;9.13;;;18.50;99.90;;;;;;5015150;28;20490;-91
2022/10/28 03:36:33;;;;;;;16.02;8.95;;;18.60;99.90;;;;;;5014838;28;20113;-90
2022/10/28 03:38:58;;;;;;;15.40;8.90;;;18.60;99.90;;;;;;5014766;28;20029;-90
2022/10/28 03:41:24;;;;;;;15.10;8.95;;;18.50;99.90;;;;;;5013313;28;20412;-89
2022/10/28 03:43:50;;;;;;;17.48;8.90;;;18.50;99.90;;;;;;5014660;28;20458;-89
2022/10/28 03:46:15;;;;;;;16.52;8.82;;;18.50;99.90;;;;;;5014332;28;20037;-88
2022/10/28 03:48:41;;;;;;;12.95;9.10;;;18.50;99.90;;;;;;5014193;28;20495;-89
2022/10/28 03:51:07;;;;;;;13.35;8.40;;;18.50;99.90;;;;;;5013947;28;20139;-89
2022/10/28 03:53:33;;;;;;;11.68;8.98;;;18.50;99.90;;;;;;5014047;28;20105;-90
2022/10/28 03:56:00;;;;;;;13.07;8.13;;;18.50;99.90;;;;;;5014340;28;20060;-90
2022/10/28 03:58:26;;;;;;;17.00;9.05;;;18.60;99.90;;;;;;5014196;28;20076;-88
2022/10/28 04:00:53;;;;;;;15.90;9.07;;;18.60;99.90;;;;;;5014141;28;20049;-88
2022/10/28 04:03:20;;;;;;;18.63;8.38;;;18.50;99.90;;;;;;5013787;28;20018;-89
2022/10/28 04:05:49;;;;;;;11.80;8.32;;;18.60;99.90;;;;;;5013644;28;20104;-88
2022/10/28 04:08:16;;;;;;;14.27;8.27;;;18.50;99.90;;;;;;5013769;28;20050;-89
2022/10/28 04:10:43;;;;;;;15.30;8.88;;;18.50;99.90;;;;;;5013950;28;20042;-88
2022/10/28 04:13:09;;;;;;;13.73;9.02;;;18.50;99.90;;;;;;5013530;28;20022;-89
2022/10/28 04:15:35;;;;;;;13.40;8.93;;;18.60;99.90;;;;;;5013919;28;20018;-88
2022/10/28 04:18:01;;;;;;;12.82;8.02;;;18.50;99.90;;;;;;5013895;28;20029;-88
2022/10/28 04:20:28;;;;;;;11.50;7.57;;;18.60;99.90;;;;;;5013463;28;20026;-88
2022/10/28 04:22:54;;;;;;;13.02;7.60;;;18.50;99.90;;;;;;5013168;28;20045;-89
2022/10/28 04:25:20;;;;;;;11.73;8.30;;;18.50;99.90;;;;;;5013246;28;20519;-88
2022/10/28 04:27:47;;;;;;;11.60;8.00;;;18.50;99.90;;;;;;5028258;28;20033;-88
2022/10/28 04:30:13;;;;;;;14.13;8.70;;;18.50;99.90;;;;;;5012991;28;20030;-88
2022/10/28 04:32:40;;;;;;;12.27;7.97;;;18.50;99.90;;;;;;5013254;28;20018;-88
2022/10/28 04:35:07;;;;;;;11.77;7.22;;;18.50;99.90;;;;;;5013360;28;20064;-88
2022/10/28 04:37:32;;;;;;;12.57;8.07;;;18.50;99.90;;;;;;5012956;28;20030;-89
2022/10/28 04:39:58;;;;;;;8.60;7.10;;;18.50;99.90;;;;;;5013424;28;20036;-89
2022/10/28 04:42:23;;;;;;;10.70;7.45;;;18.50;99.90;;;;;;5011993;28;20396;-88
2022/10/28 04:44:49;;;;;;;11.45;7.53;;;18.50;99.90;;;;;;5013102;28;20113;-88
2022/10/28 04:47:16;;;;;;;14.07;8.23;;;18.50;99.90;;;;;;5013218;28;20538;-88
2022/10/28 04:49:42;;;;;;;13.32;7.88;;;18.40;99.90;;;;;;5013247;28;20022;-88
2022/10/28 04:52:08;;;;;;;11.63;7.85;;;18.40;99.90;;;;;;5012743;28;20511;-88
2022/10/28 04:54:33;;;;;;;11.02;7.25;;;18.40;99.90;;;;;;5013192;28;20498;-89
2022/10/28 04:56:59;;;;;;;13.68;7.93;;;18.40;99.90;;;;;;5013267;28;20041;-90
2022/10/28 04:59:25;;;;;;;13.68;8.07;;;18.40;99.90;;;;;;5011992;28;20041;-90
2022/10/28 05:01:50;;;;;;;10.77;8.05;;;18.40;99.90;;;;;;5011022;28;20519;-89
2022/10/28 05:04:16;;;;;;;10.88;6.95;;;18.30;99.90;;;;;;5027807;28;20392;-90
2022/10/28 05:06:42;;;;;;;10.77;7.47;;;18.40;99.90;;;;;;5001651;28;20472;-90
2022/10/28 05:09:08;;;;;;;12.05;7.60;;;18.40;99.90;;;;;;5007760;28;20522;-88
2022/10/28 05:11:34;;;;;;;14.30;7.88;;;18.40;99.90;;;;;;4992843;28;20022;-88
2022/10/28 05:13:59;;;;;;;9.20;7.22;;;18.40;99.90;;;;;;5007896;28;20037;-88
2022/10/28 05:16:25;;;;;;;14.98;7.82;;;18.40;99.90;;;;;;4993011;28;20052;-89
2022/10/28 05:18:51;;;;;;;12.30;7.20;;;18.30;99.90;;;;;;4993327;28;20030;-88
2022/10/28 05:21:17;;;;;;;13.35;8.18;;;18.40;99.90;;;;;;4992192;28;20514;-87
2022/10/28 05:23:42;;;;;;;8.40;7.15;;;18.30;99.90;;;;;;4992683;28;20117;-88
2022/10/28 05:26:08;;;;;;;12.52;7.60;;;18.40;99.90;;;;;;4992734;28;20038;-88
2022/10/28 05:28:34;;;;;;;12.48;7.80;;;18.40;99.90;;;;;;4992623;28;20026;-88
2022/10/28 05:31:00;;;;;;;11.07;7.85;;;18.40;99.90;;;;;;5010475;28;20026;-88
2022/10/28 05:33:25;;;;;;;10.93;7.65;;;18.30;99.90;;;;;;5012116;28;20447;-88
2022/10/28 05:35:51;;;;;;;10.52;7.68;;;18.30;99.90;;;;;;5011799;28;20061;-87
2022/10/28 05:38:17;;;;;;;9.23;7.13;;;18.30;99.90;;;;;;5012334;28;20033;-88
2022/10/28 05:40:42;;;;;;;10.88;7.13;;;18.30;99.90;;;;;;5014518;28;20021;-87
2022/10/28 05:43:09;;;;;;;13.27;7.60;;;18.30;99.90;;;;;;5016168;28;20030;-87
2022/10/28 05:45:35;;;;;;;8.13;7.00;;;18.30;99.90;;;;;;5016449;28;20044;-87
2022/10/28 05:48:01;;;;;;;8.50;6.53;;;18.30;99.90;;;;;;5016207;28;20543;-88
2022/10/28 05:50:27;;;;;;;10.10;6.78;;;18.20;99.90;;;;;;5015701;28;20044;-88
2022/10/28 05:52:55;;;;;;;10.43;7.38;;;18.20;99.90;;;;;;5016033;28;20079;-88
2022/10/28 05:55:23;;;;;;;12.05;7.60;;;18.20;99.90;;;;;;5015997;28;20053;-88
2022/10/28 05:57:51;;;;;;;10.48;7.00;;;18.20;99.90;;;;;;5016105;28;20562;-88
2022/10/28 06:00:19;;;;;;;12.90;7.43;;;18.20;99.90;;;;;;5016130;28;20060;-89
2022/10/28 06:02:45;;;;;;;12.63;7.43;;;18.20;99.90;;;;;;5014655;28;20030;-90
2022/10/28 06:05:11;;;;;;;9.65;6.88;;;18.20;99.90;;;;;;5014221;28;20100;-88
2022/10/28 06:07:39;;;;;;;8.57;6.80;;;18.20;99.90;;;;;;5015612;28;20029;-89
2022/10/28 06:10:06;;;;;;;9.98;6.53;;;18.10;99.90;;;;;;5016214;28;20033;-88
2022/10/28 06:12:32;;;;;;;15.40;8.20;;;18.20;99.90;;;;;;5015939;28;20022;-88
2022/10/28 06:14:58;;;;;;;14.63;7.43;;;18.10;99.90;;;;;;5030880;28;20053;-89
2022/10/28 06:17:24;;;;;;;11.32;6.82;;;18.20;99.90;;;;;;5015865;28;20041;-89
2022/10/28 06:19:50;;;;;;;9.98;7.13;;;18.20;99.90;;;;;;5015425;28;20557;-88
2022/10/28 06:22:16;;;;;;;9.32;6.72;;;18.20;99.90;;;;;;5013994;28;20125;-89
2022/10/28 06:24:41;;;;;;;12.48;7.32;;;18.20;99.90;;;;;;5014979;28;20108;-89
2022/10/28 06:27:07;;;;;;;10.95;7.28;;;18.20;99.90;;;;;;5015279;28;20022;-89
2022/10/28 06:29:33;;;;;;;11.68;7.47;;;18.20;99.90;;;;;;5015691;28;20051;-88
2022/10/28 06:31:59;;;;;;;11.45;6.53;;;18.20;99.90;;;;;;5015673;28;20022;-91
2022/10/28 06:34:38;;;;;;;9.38;6.78;;;18.20;99.90;;;;;;5011318;28;20104;-90
2022/10/28 06:37:05;;;;;;;8.13;6.72;;;18.20;99.90;;;;;;5008038;28;20045;-89
2022/10/28 06:39:31;;;;;;;8.90;6.75;;;18.20;99.90;;;;;;5008288;28;20040;-89
2022/10/28 06:41:57;;;;;;;9.10;6.50;;;18.20;99.90;;;;;;5005578;28;20030;-88
2022/10/28 06:44:22;;;;;;;11.52;6.97;;;18.20;99.90;;;;;;5024317;28;20113;-89
2022/10/28 06:46:48;;;;;;;9.82;6.57;;;18.20;99.90;;;;;;5015085;28;20562;-89
2022/10/28 06:49:14;;;;;;;9.32;6.30;;;18.20;99.90;;;;;;5011204;28;20522;-89
2022/10/28 06:51:40;;;;;;;11.07;7.43;;;18.20;99.90;;;;;;5012998;28;20018;-89
2022/10/28 06:54:06;;;;;;;10.77;6.78;;;18.20;99.90;;;;;;5015079;28;20041;-89
2022/10/28 06:56:31;;;;;;;10.00;6.88;;;18.20;99.90;;;;;;5015013;28;20057;-89
2022/10/28 06:58:57;;;;;;;9.98;7.10;;;18.20;99.90;;;;;;5014254;28;20384;-88
2022/10/28 07:01:23;;;;;;;7.60;6.80;;;18.20;99.90;;;;;;5013930;28;20030;-87
2022/10/28 07:03:49;;;;;;;9.10;6.57;;;18.20;99.90;;;;;;5013488;28;20052;-87
2022/10/28 07:06:16;;;;;;;12.23;7.30;;;18.20;99.90;;;;;;5013888;28;20028;-87
2022/10/28 07:08:42;;;;;;;10.02;6.80;;;18.20;99.90;;;;;;5013795;28;20184;-87
2022/10/28 07:11:07;;;;;;;12.18;7.70;;;18.30;99.90;;;;;;5014377;28;20555;-88
2022/10/28 07:13:33;;;;;;;9.43;6.32;;;18.30;99.90;;;;;;5014744;28;20484;-87
2022/10/28 07:16:00;;;;;;;13.00;7.63;;;18.30;99.90;;;;;;5014679;28;20471;-88
2022/10/28 07:18:27;;;;;;;12.82;7.32;;;18.30;99.90;;;;;;5013501;28;20029;-87
2022/10/28 07:20:56;;;;;;;16.95;7.95;;;18.30;99.90;;;;;;5002076;28;20025;-87
2022/10/28 07:23:22;;;;;;;10.23;7.05;;;18.30;99.90;;;;;;5014011;28;20022;-87
2022/10/28 07:25:52;;;;;;;9.70;6.95;;;18.40;99.90;;;;;;5013966;28;20504;-88
2022/10/28 07:28:18;;;;;;;11.85;7.50;;;18.40;99.90;;;;;;5013580;28;20018;-88
2022/10/28 07:30:44;;;;;;;10.55;7.22;;;18.50;99.90;;;;;;5014353;28;20030;-88
2022/10/28 07:33:10;;;;;;;9.80;6.72;;;18.50;99.90;;;;;;5013240;28;20373;-87
2022/10/28 07:35:35;;;;;;;12.70;6.65;;;18.50;99.90;;;;;;5014126;28;20289;-88
2022/10/28 07:38:01;;;;;;;13.82;7.78;;;18.50;99.90;;;;;;5003894;28;20052;-88
2022/10/28 07:40:27;;;;;;;11.07;6.88;;;18.50;99.90;;;;;;5014425;28;20076;-88
2022/10/28 07:42:53;;;;;;;11.20;7.90;;;18.50;99.90;;;;;;5014066;28;20018;-87
2022/10/28 07:45:19;;;;;;;10.77;7.13;;;18.60;99.90;;;;;;5014156;28;20026;-88
2022/10/28 07:47:45;;;;;;;11.23;6.80;;;18.60;99.90;;;;;;5013870;28;20033;-87
2022/10/28 07:50:11;;;;;;;14.60;7.63;;;18.70;99.90;;;;;;5013206;28;20026;-87
2022/10/28 07:52:37;;;;;;;14.38;7.25;;;18.80;99.90;;;;;;5012794;28;20033;-87
2022/10/28 07:55:04;;;;;;;14.10;7.30;;;18.90;99.90;;;;;;5012823;28;20030;-87
2022/10/28 07:57:30;;;;;;;11.18;7.80;;;18.90;99.90;;;;;;5013879;28;20022;-88
2022/10/28 07:59:55;;;;;;;8.65;6.78;;;18.90;99.90;;;;;;5013178;28;20040;-88
2022/10/28 08:02:23;;;;;;;11.75;7.75;;;19.00;99.90;;;;;;5012035;28;20022;-88
2022/10/28 08:04:50;;;;;;;13.00;7.78;;;19.10;99.90;;;;;;5013473;28;20099;-88
2022/10/28 08:07:16;;;;;;;12.05;7.60;;;19.10;99.90;;;;;;5013513;28;20029;-88
2022/10/28 08:09:42;;;;;;;10.95;7.55;;;19.20;99.90;;;;;;5000237;28;20026;-87
2022/10/28 08:12:11;;;;;;;10.98;7.60;;;19.30;99.90;;;;;;5013356;28;20097;-87
2022/10/28 08:14:37;;;;;;;10.73;7.07;;;19.30;99.90;;;;;;4995040;28;20038;-89
2022/10/28 08:17:02;;;;;;;10.52;7.65;;;19.50;99.90;;;;;;4993631;28;20027;-89
2022/10/28 08:19:28;;;;;;;11.80;7.47;;;19.80;99.90;;;;;;4993989;28;20484;-89
2022/10/28 08:21:54;;;;;;;10.77;7.32;;;20.10;99.90;;;;;;4993455;28;20033;-86
2022/10/28 08:24:20;;;;;;;12.30;6.78;;;20.20;99.90;;;;;;5009776;28;20026;-86
2022/10/28 08:26:46;;;;;;;10.48;7.43;;;20.90;99.90;;;;;;5008958;28;20050;-87
2022/10/28 08:29:12;;;;;;;12.15;7.38;;;20.60;99.90;;;;;;5012683;28;20527;-86
2022/10/28 08:31:38;;;;;;;11.20;6.20;;;20.20;99.90;;;;;;5011856;28;20029;-86
2022/10/28 08:34:05;;;;;;;13.38;7.40;;;19.80;99.90;;;;;;5011834;28;20038;-86
2022/10/28 08:36:31;;;;;;;12.30;6.72;;;19.80;99.90;;;;;;5005740;28;20511;-86
2022/10/28 08:39:00;;;;;;;8.82;6.72;;;19.70;99.90;;;;;;5011608;28;20029;-86
2022/10/28 08:41:46;;;;;;;9.48;6.25;;;19.60;99.90;;;;;;5011303;28;20037;-85
2022/10/28 08:44:29;;;;;;;10.40;6.63;;;19.60;99.90;;;;;;5004836;28;20034;-85
2022/10/28 08:47:19;;;;;;;17.67;7.05;;;19.70;99.90;;;;;;5009876;28;20026;-86
2022/10/28 08:49:49;;;;;;;8.73;6.45;;;19.80;99.90;;;;;;5005353;28;20034;-79
2022/10/28 08:52:29;;;;;;;8.93;6.60;;;19.80;99.90;;;;;;5007027;28;20124;-79
2022/10/28 08:55:04;;;;;;;9.80;6.50;;;19.90;99.90;;;;;;5011425;28;20034;-80
2022/10/28 08:57:32;;;;;;;11.10;6.05;;;20.00;99.90;;;;;;5010817;28;20040;-80
2022/10/28 08:59:58;;;;;;;9.82;6.53;;;20.00;99.90;;;;;;5003512;28;20053;-80
2022/10/28 09:02:30;;;;;;;11.80;6.03;;;20.00;99.90;;;;;;5012188;28;20495;-80
2022/10/28 09:05:14;;;;;;;11.18;6.38;;;20.10;99.90;;;;;;5012151;28;20049;-81
2022/10/28 09:07:40;;;;;;;12.18;7.07;;;20.10;99.90;;;;;;5011724;28;20030;-81
2022/10/28 09:10:06;;;;;;;12.25;7.13;;;20.10;99.90;;;;;;5010931;28;20034;-81
2022/10/28 09:12:49;;;;;;;8.73;6.93;;;20.10;99.90;;;;;;5007911;28;20029;-80
2022/10/28 09:15:21;;;;;;;12.18;7.22;;;20.10;99.90;;;;;;5011424;28;20053;-80
2022/10/28 09:17:58;;;;;;;10.43;6.65;;;20.20;99.90;;;;;;5011761;28;20511;-80
2022/10/28 09:20:36;;;;;;;13.75;7.53;;;20.30;99.90;;;;;;5011310;28;20022;-80
2022/10/28 09:23:32;;;;;;;12.40;7.28;;;20.20;99.90;;;;;;5010817;28;20125;-80
2022/10/28 09:26:11;;;;;;;11.52;7.07;;;20.20;99.90;;;;;;5006002;28;20096;-81
2022/10/28 09:28:37;;;;;;;10.25;6.93;;;20.30;99.90;;;;;;5010827;28;20022;-81
2022/10/28 09:31:17;;;;;;;14.20;7.13;;;20.30;99.90;;;;;;5011803;28;20076;-81
2022/10/28 09:34:03;;;;;;;8.70;6.07;;;20.40;99.90;;;;;;5009702;28;20030;-81
2022/10/28 09:36:42;;;;;;;15.30;6.57;;;20.40;99.90;;;;;;5009332;28;20117;-81
2022/10/28 09:39:24;;;;;;;10.85;6.10;;;20.40;99.90;;;;;;5010592;28;20030;-81
2022/10/28 09:41:51;;;;;;;10.18;6.88;;;20.50;99.90;;;;;;5011268;28;20577;-81
2022/10/28 09:44:52;;;;;;;9.68;6.93;;;20.50;99.90;;;;;;5008942;28;20091;-81
2022/10/28 09:47:29;;;;;;;8.57;6.70;;;20.50;99.90;;;;;;5011826;28;20025;-81
2022/10/28 09:49:59;;;;;;;12.50;6.88;;;20.60;99.90;;;;;;5010516;28;20030;-81
2022/10/28 09:52:35;;;;;;;10.88;6.25;;;20.60;99.90;;;;;;5010711;28;20030;-81
2022/10/28 09:55:08;;;;;;;9.32;6.07;;;20.60;99.90;;;;;;5011326;28;20042;-81
2022/10/28 09:57:33;;;;;;;10.10;6.35;;;20.60;99.90;;;;;;5010807;28;20117;-81
2022/10/28 09:59:59;;;;;;;9.25;6.30;;;20.60;99.90;;;;;;5010650;28;20113;-81
2022/10/28 10:02:28;;;;;;;11.77;7.25;;;20.60;99.90;;;;;;5010325;28;20530;-81
2022/10/28 10:04:59;;;;;;;11.73;7.20;;;20.60;99.90;;;;;;5006759;28;20030;-82
2022/10/28 10:07:38;;;;;;;11.90;7.35;;;20.60;99.90;;;;;;4995292;28;20019;-81
2022/10/28 10:10:20;;;;;;;8.52;6.28;;;20.70;99.90;;;;;;4999801;28;20104;-81
2022/10/28 10:12:49;;;;;;;9.40;6.85;;;20.70;99.90;;;;;;5010971;28;20049;-81
2022/10/28 10:15:28;;;;;;;12.98;7.10;;;20.70;99.90;;;;;;5011603;28;20034;-81
2022/10/28 10:17:58;;;;;;;9.00;6.50;;;20.80;99.90;;;;;;5005820;28;20053;-81
2022/10/28 10:20:24;;;;;;;12.77;6.60;;;20.70;99.90;;;;;;5006702;28;20022;-81
2022/10/28 10:22:50;;;;;;;13.20;6.40;;;20.70;99.90;;;;;;5010355;28;20132;-81
2022/10/28 10:25:24;;;;;;;12.88;6.55;;;20.80;99.90;;;;;;5010944;28;20054;-81
2022/10/28 10:28:03;;;;;;;12.23;6.18;;;20.80;99.90;;;;;;5014649;28;20022;-81
2022/10/28 10:30:47;;;;;;;12.13;6.60;;;20.80;99.90;;;;;;5014817;28;20064;-81
2022/10/28 10:33:34;;;;;;;11.38;7.32;;;20.80;99.90;;;;;;5011162;28;20092;-81
2022/10/28 10:36:09;;;;;;;14.77;6.47;;;20.80;99.90;;;;;;5015076;28;20109;-81
2022/10/28 10:38:36;;;;;;;10.70;7.10;;;20.90;99.90;;;;;;5011948;28;20030;-81
2022/10/28 10:41:02;;;;;;;9.30;6.00;;;20.90;99.90;;;;;;5014360;28;20022;-81
2022/10/28 10:43:36;;;;;;;10.57;6.53;;;21.00;99.90;;;;;;5014612;28;20033;-81
2022/10/28 10:46:02;;;;;;;14.73;6.60;;;21.10;99.90;;;;;;5004622;28;20033;-81
2022/10/28 10:48:31;;;;;;;13.55;6.93;;;21.20;99.90;;;;;;5014660;28;20076;-82
2022/10/28 10:50:57;;;;;;;10.48;7.22;;;21.20;99.90;;;;;;5014834;28;20030;-82
2022/10/28 10:53:27;;;;;;;8.85;6.85;;;21.40;99.90;;;;;;5014204;28;20027;-82
2022/10/28 10:55:55;;;;;;;12.40;6.32;;;21.50;99.90;;;;;;5014411;28;20036;-82
2022/10/28 10:58:23;;;;;;;10.57;6.47;;;21.60;99.90;;;;;;5014293;28;20022;-82
2022/10/28 11:00:56;;;;;;;11.13;5.88;;;21.70;99.90;;;;;;5008410;28;20026;-82
2022/10/28 11:03:33;;;;;;;11.20;6.68;;;21.90;99.90;;;;;;5012488;28;20048;-82
2022/10/28 11:06:00;;;;;;;9.60;6.25;;;22.00;99.90;;;;;;5010707;28;20989;-82
2022/10/28 11:08:36;;;;;;;12.27;6.88;;;22.20;99.90;;;;;;5010727;28;21012;-82
2022/10/28 11:11:13;;;;;;;8.35;6.13;;;22.30;99.90;;;;;;5011201;28;20030;-82
2022/10/28 11:13:40;;;;;;;12.63;6.35;;;22.20;99.90;;;;;;5009549;28;20088;-81
2022/10/28 11:16:20;;;;;;;13.43;6.97;;;22.30;99.90;;;;;;5011590;28;20029;-82
2022/10/28 11:18:49;;;;;;;19.15;8.18;;;22.50;99.90;;;;;;5011843;28;20022;-82
2022/10/28 11:21:34;;;;;;;15.60;6.78;;;22.50;99.90;;;;;;5017095;28;20025;-82
2022/10/28 11:24:35;;;;;;;11.07;6.85;;;22.40;99.90;;;;;;5017802;28;20054;-82
2022/10/28 11:27:07;;;;;;;12.32;7.85;;;22.50;99.90;;;;;;4973003;28;20046;-82
2022/10/28 11:29:34;;;;;;;13.45;7.45;;;22.60;99.90;;;;;;4965896;28;20027;-82
2022/10/28 11:32:35;;;;;;;11.60;6.90;;;22.70;99.90;;;;;;4972906;28;20058;-82
2022/10/28 11:35:10;;;;;;;11.90;7.40;;;22.70;99.90;;;;;;4971055;28;20046;-82
2022/10/28 11:37:55;;;;;;;16.17;7.20;;;22.60;99.90;;;;;;4963570;28;20032;-82
2022/10/28 11:40:35;;;;;;;15.18;7.85;;;22.60;99.90;;;;;;4972991;28;20034;-82
2022/10/28 11:43:19;;;;;;;20.42;8.68;;;22.70;99.90;;;;;;4952929;28;20031;-82
2022/10/28 11:46:06;;;;;;;11.05;7.60;;;22.70;99.90;;;;;;4953429;29;20591;-82
2022/10/28 11:49:08;;;;;;;14.90;7.47;;;22.70;99.90;;;;;;4954526;28;20085;-82
2022/10/28 11:52:06;;;;;;;11.55;7.18;;;22.70;99.90;;;;;;4967952;28;20035;-82
2022/10/28 11:54:56;;;;;;;14.77;7.60;;;22.70;99.90;;;;;;4949342;29;20035;-84
2022/10/28 11:57:42;;;;;;;12.15;8.48;;;22.70;99.90;;;;;;4954843;28;20031;-82
2022/10/28 12:00:29;;;;;;;14.23;8.00;;;23.00;99.90;;;;;;4967418;28;20045;-83
2022/10/28 12:03:14;;;;;;;15.20;7.97;;;23.00;99.90;;;;;;5010289;28;20105;-82
2022/10/28 12:05:52;;;;;;;12.65;7.32;;;23.10;99.90;;;;;;5012787;28;20036;-82
2022/10/28 12:08:44;;;;;;;13.30;7.35;;;23.30;99.90;;;;;;5013364;28;20022;-82
2022/10/28 12:11:22;;;;;;;15.57;7.38;;;23.30;99.90;;;;;;5013717;28;20022;-82
2022/10/28 12:13:51;;;;;;;11.85;7.10;;;23.10;99.90;;;;;;5013175;28;20030;-82
2022/10/28 12:16:42;;;;;;;15.10;8.40;;;23.10;99.90;;;;;;5013303;28;20038;-82
2022/10/28 12:19:16;;;;;;;11.73;7.28;;;23.20;99.90;;;;;;5013712;28;20184;-82
2022/10/28 12:22:03;;;;;;;14.10;7.13;;;23.40;99.90;;;;;;5013692;28;20030;-82
2022/10/28 12:24:33;;;;;;;17.08;7.45;;;23.30;99.90;;;;;;5013338;28;20480;-83
2022/10/28 12:27:04;;;;;;;16.23;7.07;;;23.30;99.90;;;;;;5013340;28;20105;-82
2022/10/28 12:29:36;;;;;;;11.45;7.22;;;23.20;99.90;;;;;;5013103;28;20034;-82
2022/10/28 12:32:30;;;;;;;10.90;6.75;;;23.40;99.90;;;;;;5013420;28;20026;-82
2022/10/28 12:35:11;;;;;;;14.07;7.43;;;23.50;99.90;;;;;;5005251;28;20065;-82
2022/10/28 12:37:42;;;;;;;11.35;6.70;;;23.40;99.90;;;;;;5009956;28;20144;-82
2022/10/28 12:40:27;;;;;;;11.30;6.95;;;23.20;99.90;;;;;;4993651;28;20076;-82
2022/10/28 12:43:14;;;;;;;11.93;6.72;;;23.20;99.90;;;;;;4993402;28;20081;-82
2022/10/28 12:45:41;;;;;;;11.20;6.95;;;23.00;99.90;;;;;;4993389;28;20092;-82
2022/10/28 12:48:21;;;;;;;17.25;7.15;;;22.90;99.90;;;;;;4993615;28;20030;-82
2022/10/28 12:51:24;;;;;;;10.48;6.82;;;22.90;99.90;;;;;;5008602;28;20603;-82
2022/10/28 12:54:13;;;;;;;12.50;6.32;;;22.90;99.90;;;;;;4951847;29;20094;-82
2022/10/28 12:57:01;;;;;;;9.65;6.05;;;22.90;99.90;;;;;;4914160;29;20036;-82
2022/10/28 12:59:47;;;;;;;8.23;5.78;;;23.00;99.90;;;;;;4914327;29;20114;-82
2022/10/28 13:02:18;;;;;;;13.02;6.90;;;23.00;99.90;;;;;;4913604;29;20088;-82